Time;durP1;ratioP1;P1;durP2;ratioP2;P2;SDS_P1;SDS_P2;PMS_P1;PMS_P2;Temp;Humidity;BMP_temperature;BMP_pressure;BME280_temperature;BME280_humidity;BME280_pressure;Samples;Min_cycle;Max_cycle;Signal;HPM_P1;HPM_P2
2023/08/26 00:00:24;;;;;;;9.05;8.10;;;19.70;99.90;;;;;;5021149;28;20048;-67
2023/08/26 00:02:51;;;;;;;8.10;6.90;;;19.70;99.90;;;;;;5035077;28;20033;-67
2023/08/26 00:05:18;;;;;;;8.77;6.68;;;19.70;99.90;;;;;;5036266;28;20041;-67
2023/08/26 00:07:45;;;;;;;8.75;7.47;;;19.70;99.90;;;;;;5041639;28;20041;-68
2023/08/26 00:10:11;;;;;;;8.60;7.68;;;19.60;99.90;;;;;;5039024;28;20536;-68
2023/08/26 00:12:43;;;;;;;9.93;8.25;;;19.60;99.90;;;;;;5037724;28;20119;-67
2023/08/26 00:15:15;;;;;;;9.30;8.40;;;19.60;99.90;;;;;;5040188;28;20049;-68
2023/08/26 00:17:47;;;;;;;12.82;7.95;;;19.60;99.90;;;;;;5037738;28;20129;-68
2023/08/26 00:20:21;;;;;;;10.98;8.55;;;19.60;99.90;;;;;;5040465;28;20040;-67
2023/08/26 00:22:53;;;;;;;10.00;7.63;;;19.50;99.90;;;;;;5042098;28;20055;-67
2023/08/26 00:25:24;;;;;;;9.10;7.30;;;19.50;99.90;;;;;;5032432;28;20039;-67
2023/08/26 00:27:57;;;;;;;7.88;6.78;;;19.50;99.90;;;;;;5035097;28;20050;-68
2023/08/26 00:30:29;;;;;;;10.75;7.60;;;19.50;99.90;;;;;;5036525;28;20044;-67
2023/08/26 00:33:01;;;;;;;9.77;7.55;;;19.50;99.90;;;;;;5039299;28;20152;-67
2023/08/26 00:35:28;;;;;;;10.88;7.55;;;19.40;99.90;;;;;;5036730;28;20044;-67
2023/08/26 00:38:00;;;;;;;9.60;7.22;;;19.40;99.90;;;;;;5036646;28;20041;-67
2023/08/26 00:40:35;;;;;;;8.18;6.97;;;19.40;99.90;;;;;;5052359;28;20045;-67
2023/08/26 00:43:08;;;;;;;10.27;7.68;;;19.30;99.90;;;;;;5037624;28;20033;-67
2023/08/26 00:45:44;;;;;;;8.77;7.30;;;19.30;99.90;;;;;;5035881;28;20133;-67
2023/08/26 00:48:18;;;;;;;10.07;7.55;;;19.30;99.90;;;;;;5048617;28;20145;-67
2023/08/26 00:50:53;;;;;;;8.85;7.15;;;19.30;99.90;;;;;;5033201;28;20037;-67
2023/08/26 00:53:25;;;;;;;7.68;6.95;;;19.20;99.90;;;;;;5025568;28;20065;-67
2023/08/26 00:55:59;;;;;;;10.80;6.87;;;19.20;99.90;;;;;;5039706;28;20461;-67
2023/08/26 00:58:32;;;;;;;8.15;7.35;;;19.20;99.90;;;;;;5040548;28;20037;-67
2023/08/26 01:01:04;;;;;;;8.55;7.43;;;19.20;99.90;;;;;;5039248;28;20052;-67
2023/08/26 01:03:37;;;;;;;7.53;6.75;;;19.20;99.90;;;;;;5034145;28;20065;-67
2023/08/26 01:06:04;;;;;;;8.00;7.20;;;19.20;99.90;;;;;;5040924;28;20045;-67
2023/08/26 01:08:36;;;;;;;7.95;6.43;;;19.20;99.90;;;;;;5037642;28;20121;-68
2023/08/26 01:11:22;;;;;;;7.82;6.18;;;19.10;99.90;;;;;;5035767;28;20044;-66
2023/08/26 01:14:02;;;;;;;6.68;6.03;;;19.20;99.90;;;;;;5046587;28;20041;-67
2023/08/26 01:16:35;;;;;;;8.20;6.05;;;19.20;99.90;;;;;;5036447;28;20045;-67
2023/08/26 01:19:25;;;;;;;8.02;6.43;;;19.30;99.90;;;;;;5042992;28;20045;-67
2023/08/26 01:21:56;;;;;;;7.70;6.32;;;19.30;99.90;;;;;;5043895;28;20123;-67
2023/08/26 01:24:30;;;;;;;9.00;6.18;;;19.30;99.90;;;;;;5026355;28;20052;-67
2023/08/26 01:27:03;;;;;;;6.45;5.78;;;19.40;99.90;;;;;;5023584;28;20045;-67
2023/08/26 01:29:35;;;;;;;8.15;6.38;;;19.40;99.90;;;;;;5045369;28;20533;-67
2023/08/26 01:32:33;;;;;;;7.03;5.85;;;19.40;99.90;;;;;;5038987;28;20585;-67
2023/08/26 01:35:05;;;;;;;8.50;6.35;;;19.30;99.90;;;;;;5038673;28;20077;-67
2023/08/26 01:37:40;;;;;;;6.88;5.85;;;19.30;99.90;;;;;;5033281;28;20041;-68
2023/08/26 01:40:09;;;;;;;7.57;6.07;;;19.30;99.90;;;;;;5039346;28;20076;-67
2023/08/26 01:42:39;;;;;;;8.10;6.18;;;19.30;99.90;;;;;;5041173;28;20064;-67
2023/08/26 01:45:12;;;;;;;6.82;5.53;;;19.30;99.90;;;;;;5038440;28;20033;-67
2023/08/26 01:47:44;;;;;;;7.00;6.10;;;19.30;99.90;;;;;;5040988;28;20607;-67
2023/08/26 01:50:16;;;;;;;7.93;6.45;;;19.30;99.90;;;;;;5042122;28;20296;-67
2023/08/26 01:52:48;;;;;;;9.18;6.55;;;19.30;99.90;;;;;;5040424;28;20041;-67
2023/08/26 01:55:15;;;;;;;7.25;6.15;;;19.20;99.90;;;;;;5047437;28;20041;-67
2023/08/26 01:57:42;;;;;;;7.47;6.13;;;19.10;99.90;;;;;;5034657;28;20055;-68
2023/08/26 02:00:14;;;;;;;6.72;6.13;;;19.10;99.90;;;;;;5034253;28;20047;-67
2023/08/26 02:02:46;;;;;;;7.28;5.43;;;19.10;99.90;;;;;;5037644;28;20064;-67
2023/08/26 02:05:17;;;;;;;6.20;5.47;;;19.10;99.90;;;;;;5028418;28;20056;-67
2023/08/26 02:07:50;;;;;;;7.38;5.43;;;19.10;99.90;;;;;;5038391;28;20049;-67
2023/08/26 02:10:22;;;;;;;8.48;5.22;;;19.10;99.90;;;;;;5044226;28;20041;-67
2023/08/26 02:12:54;;;;;;;6.72;5.93;;;19.10;99.90;;;;;;5041288;28;20046;-67
2023/08/26 02:15:26;;;;;;;6.18;5.57;;;19.10;99.90;;;;;;5039946;28;20045;-68
2023/08/26 02:17:58;;;;;;;6.88;6.18;;;19.10;99.90;;;;;;5037859;28;20049;-67
2023/08/26 02:20:29;;;;;;;6.72;5.63;;;19.10;99.90;;;;;;5042538;28;20075;-67
2023/08/26 02:23:02;;;;;;;8.77;6.90;;;19.10;99.90;;;;;;5036468;28;20052;-67
2023/08/26 02:25:29;;;;;;;8.82;6.47;;;19.20;99.90;;;;;;5033209;28;20034;-67
2023/08/26 02:28:02;;;;;;;8.63;5.85;;;19.20;99.90;;;;;;5036336;28;20518;-67
2023/08/26 02:30:34;;;;;;;7.07;6.00;;;19.20;99.90;;;;;;5037134;28;20038;-67
2023/08/26 02:33:07;;;;;;;12.43;8.13;;;19.20;99.90;;;;;;5024422;28;20132;-67
2023/08/26 02:35:45;;;;;;;7.72;6.30;;;19.20;99.90;;;;;;5040010;28;20045;-67
2023/08/26 02:38:17;;;;;;;9.30;6.45;;;19.20;99.90;;;;;;5037316;28;20565;-67
2023/08/26 02:40:53;;;;;;;8.32;6.85;;;19.20;99.90;;;;;;5036884;28;20096;-67
2023/08/26 02:43:25;;;;;;;7.55;6.82;;;19.20;99.90;;;;;;5046238;28;20086;-67
2023/08/26 02:45:53;;;;;;;9.27;7.00;;;19.20;99.90;;;;;;5033834;28;20547;-67
2023/08/26 02:48:26;;;;;;;8.85;6.95;;;19.20;99.90;;;;;;5030453;28;20564;-67
2023/08/26 02:51:00;;;;;;;12.88;7.15;;;19.10;99.90;;;;;;5045328;28;20081;-67
2023/08/26 02:53:32;;;;;;;8.98;7.13;;;19.10;99.90;;;;;;5039708;28;20049;-67
2023/08/26 02:56:00;;;;;;;9.18;7.18;;;19.10;99.90;;;;;;5037711;28;20121;-67
2023/08/26 02:58:32;;;;;;;7.13;6.40;;;19.10;99.90;;;;;;5038036;28;20445;-68
2023/08/26 03:01:02;;;;;;;9.15;7.43;;;19.10;99.90;;;;;;5038645;28;20060;-67
2023/08/26 03:03:34;;;;;;;7.90;7.05;;;19.00;99.90;;;;;;5023466;28;20132;-67
2023/08/26 03:06:06;;;;;;;10.88;8.00;;;18.90;99.90;;;;;;5036164;28;20042;-67
2023/08/26 03:08:32;;;;;;;9.13;6.68;;;18.90;99.90;;;;;;5040666;28;20045;-67
2023/08/26 03:11:07;;;;;;;9.52;7.25;;;18.90;99.90;;;;;;5042374;28;20047;-67
2023/08/26 03:13:41;;;;;;;9.57;6.55;;;18.90;99.90;;;;;;5052445;28;20072;-67
2023/08/26 03:16:13;;;;;;;7.22;6.43;;;18.90;99.90;;;;;;5036597;28;20514;-67
2023/08/26 03:18:45;;;;;;;8.32;7.45;;;18.90;99.90;;;;;;5038865;28;20048;-67
2023/08/26 03:21:17;;;;;;;7.57;6.70;;;18.90;99.90;;;;;;5041059;28;20041;-67
2023/08/26 03:23:49;;;;;;;7.38;6.60;;;18.90;99.90;;;;;;5044179;28;20045;-67
2023/08/26 03:26:21;;;;;;;7.80;6.68;;;18.90;99.90;;;;;;5037388;28;20111;-67
2023/08/26 03:28:53;;;;;;;7.13;6.43;;;18.90;99.90;;;;;;5035539;28;20045;-67
2023/08/26 03:31:25;;;;;;;9.43;7.22;;;18.90;99.90;;;;;;5045459;28;20394;-68
2023/08/26 03:33:58;;;;;;;6.73;5.87;;;18.90;99.90;;;;;;5034477;28;20067;-68
2023/08/26 03:36:25;;;;;;;9.70;7.00;;;18.90;99.90;;;;;;5041275;28;20279;-67
2023/08/26 03:38:56;;;;;;;7.60;6.38;;;18.90;99.90;;;;;;5038184;28;20128;-67
2023/08/26 03:41:29;;;;;;;9.10;6.22;;;18.90;99.90;;;;;;5031107;28;20465;-68
2023/08/26 03:44:01;;;;;;;7.50;5.80;;;18.90;99.90;;;;;;5036052;28;20033;-67
2023/08/26 03:46:33;;;;;;;7.40;6.22;;;18.90;99.90;;;;;;5042160;28;20050;-67
2023/08/26 03:49:05;;;;;;;7.70;5.70;;;18.90;99.90;;;;;;5020954;28;20047;-67
2023/08/26 03:51:37;;;;;;;6.72;5.72;;;18.80;99.90;;;;;;5046350;28;20052;-67
2023/08/26 03:54:04;;;;;;;7.38;5.78;;;18.90;99.90;;;;;;5037037;28;20041;-66
2023/08/26 03:56:36;;;;;;;7.88;6.18;;;18.90;99.90;;;;;;5043706;28;20564;-67
2023/08/26 03:59:08;;;;;;;10.05;5.80;;;18.90;99.90;;;;;;5037592;28;20088;-66
2023/08/26 04:01:35;;;;;;;8.32;6.93;;;18.90;99.90;;;;;;5041314;28;20444;-66
2023/08/26 04:04:09;;;;;;;8.93;6.13;;;18.90;99.90;;;;;;5036114;28;20144;-65
2023/08/26 04:06:40;;;;;;;7.60;5.90;;;18.80;99.90;;;;;;5020428;28;20140;-66
2023/08/26 04:09:12;;;;;;;8.75;6.22;;;18.80;99.90;;;;;;5023034;28;20065;-66
2023/08/26 04:11:44;;;;;;;8.43;6.32;;;18.80;99.90;;;;;;5040305;28;20056;-66
2023/08/26 04:14:17;;;;;;;9.73;6.90;;;18.80;99.90;;;;;;5038262;28;20514;-66
2023/08/26 04:16:48;;;;;;;7.95;6.05;;;18.80;99.90;;;;;;5041573;28;20056;-66
2023/08/26 04:19:16;;;;;;;6.38;5.70;;;18.80;99.90;;;;;;5037109;28;20080;-66
2023/08/26 04:21:48;;;;;;;10.05;6.68;;;18.80;99.90;;;;;;5035252;28;20056;-66
2023/08/26 04:24:20;;;;;;;8.60;5.90;;;18.80;99.90;;;;;;5035984;28;20037;-66
2023/08/26 04:26:52;;;;;;;9.40;6.97;;;18.90;99.90;;;;;;5039053;28;20048;-66
2023/08/26 04:29:24;;;;;;;7.82;5.88;;;18.90;99.90;;;;;;5033393;28;20069;-65
2023/08/26 04:31:57;;;;;;;9.52;6.07;;;19.00;99.90;;;;;;5031908;28;20048;-66
2023/08/26 04:34:29;;;;;;;8.75;6.15;;;19.00;99.90;;;;;;5038752;28;20048;-65
2023/08/26 04:37:00;;;;;;;7.68;6.32;;;19.00;99.90;;;;;;5036491;28;20056;-66
2023/08/26 04:39:32;;;;;;;7.72;6.22;;;19.00;99.90;;;;;;5046836;28;20133;-66
2023/08/26 04:42:04;;;;;;;8.30;6.47;;;19.00;99.90;;;;;;5039474;28;20603;-65
2023/08/26 04:44:36;;;;;;;8.10;6.45;;;19.00;99.90;;;;;;5046489;28;20054;-66
2023/08/26 04:47:08;;;;;;;7.10;6.32;;;18.90;99.90;;;;;;5039931;28;20045;-66
2023/08/26 04:49:40;;;;;;;8.02;6.95;;;18.90;99.90;;;;;;5039487;28;20045;-66
2023/08/26 04:52:12;;;;;;;8.35;6.60;;;18.90;99.90;;;;;;5025953;28;20126;-66
2023/08/26 04:54:44;;;;;;;8.10;6.60;;;18.90;99.90;;;;;;5019904;28;20053;-66
2023/08/26 04:57:17;;;;;;;9.60;7.53;;;18.90;99.90;;;;;;5019774;28;20041;-66
2023/08/26 04:59:49;;;;;;;7.88;6.38;;;18.90;99.90;;;;;;5040806;28;20048;-65
2023/08/26 05:02:21;;;;;;;9.20;6.38;;;18.90;99.90;;;;;;5044551;28;20162;-66
2023/08/26 05:04:53;;;;;;;7.85;6.72;;;18.90;99.90;;;;;;5056051;28;20069;-66
2023/08/26 05:07:25;;;;;;;7.05;6.35;;;18.90;99.90;;;;;;5054384;28;20049;-66
2023/08/26 05:09:57;;;;;;;7.97;7.10;;;18.90;99.90;;;;;;5039460;28;20430;-66
2023/08/26 05:12:31;;;;;;;8.93;7.20;;;18.90;99.90;;;;;;5041421;28;20049;-66
2023/08/26 05:15:04;;;;;;;12.48;8.07;;;18.90;99.90;;;;;;5038216;28;20422;-66
2023/08/26 05:17:36;;;;;;;10.50;7.57;;;18.90;99.90;;;;;;5047640;28;20045;-66
2023/08/26 05:20:04;;;;;;;9.80;7.50;;;18.90;99.90;;;;;;5033272;28;20033;-66
2023/08/26 05:22:36;;;;;;;11.02;7.55;;;19.00;99.90;;;;;;5030442;28;20531;-66
2023/08/26 05:25:05;;;;;;;8.82;7.82;;;18.90;99.90;;;;;;5040520;28;20091;-66
2023/08/26 05:27:32;;;;;;;8.77;7.88;;;18.90;99.90;;;;;;5038007;28;20090;-66
2023/08/26 05:30:05;;;;;;;12.52;7.85;;;19.00;99.90;;;;;;5039248;28;20128;-65
2023/08/26 05:32:46;;;;;;;9.65;8.65;;;19.00;99.90;;;;;;5049866;28;20049;-66
2023/08/26 05:35:18;;;;;;;12.57;9.00;;;19.00;99.90;;;;;;5042852;28;20061;-66
2023/08/26 05:37:50;;;;;;;9.40;7.60;;;19.00;99.90;;;;;;5024955;28;20045;-66
2023/08/26 05:40:17;;;;;;;8.63;7.75;;;19.10;99.90;;;;;;5037878;28;20128;-66
2023/08/26 05:42:44;;;;;;;11.48;7.70;;;19.10;99.90;;;;;;5033401;28;20091;-66
2023/08/26 05:45:17;;;;;;;11.10;8.60;;;19.10;99.90;;;;;;5036138;28;20064;-66
2023/08/26 05:47:43;;;;;;;14.82;8.30;;;19.10;99.90;;;;;;5041716;28;20048;-65
2023/08/26 05:50:10;;;;;;;10.40;7.43;;;19.10;99.90;;;;;;5023585;28;20495;-66
2023/08/26 05:52:42;;;;;;;9.05;7.30;;;19.10;99.90;;;;;;5044745;28;20059;-66
2023/08/26 05:55:14;;;;;;;10.68;7.65;;;19.10;99.90;;;;;;5048749;28;20055;-66
2023/08/26 05:57:47;;;;;;;7.60;6.57;;;19.10;99.90;;;;;;5025919;28;20128;-66
2023/08/26 06:00:19;;;;;;;10.65;7.82;;;19.20;99.90;;;;;;5034329;28;20045;-66
2023/08/26 06:02:51;;;;;;;10.47;8.13;;;19.20;99.90;;;;;;5036824;28;20030;-66
2023/08/26 06:05:23;;;;;;;7.78;6.97;;;19.30;99.90;;;;;;5034135;28;20048;-66
2023/08/26 06:07:55;;;;;;;7.82;6.63;;;19.30;99.90;;;;;;5039098;28;20037;-66
2023/08/26 06:10:27;;;;;;;10.75;7.63;;;19.30;99.90;;;;;;5024751;28;20045;-66
2023/08/26 06:13:00;;;;;;;8.27;6.82;;;19.20;99.90;;;;;;5045557;28;20046;-64
2023/08/26 06:15:32;;;;;;;8.73;6.68;;;19.20;99.90;;;;;;5040698;28;20041;-66
2023/08/26 06:18:05;;;;;;;9.30;7.63;;;19.10;99.90;;;;;;5028879;28;20049;-65
2023/08/26 06:20:37;;;;;;;9.15;7.30;;;19.10;99.90;;;;;;5040370;28;20052;-65
2023/08/26 06:23:03;;;;;;;9.18;6.97;;;19.00;99.90;;;;;;5036367;28;20132;-66
2023/08/26 06:25:35;;;;;;;7.72;6.93;;;19.10;99.90;;;;;;5034737;28;20063;-66
2023/08/26 06:28:07;;;;;;;8.07;6.72;;;19.00;99.90;;;;;;5032739;28;20079;-66
2023/08/26 06:30:39;;;;;;;8.27;6.57;;;19.10;99.90;;;;;;5019362;28;20053;-66
2023/08/26 06:33:11;;;;;;;7.93;7.00;;;19.10;99.90;;;;;;5043685;28;20053;-66
2023/08/26 06:35:47;;;;;;;12.10;7.53;;;19.20;99.90;;;;;;5053807;28;20045;-66
2023/08/26 06:38:19;;;;;;;9.88;7.18;;;19.20;99.90;;;;;;5038310;28;20049;-66
2023/08/26 06:40:58;;;;;;;8.68;7.22;;;19.40;99.90;;;;;;5036829;28;20033;-66
2023/08/26 06:43:24;;;;;;;8.75;6.82;;;19.40;99.90;;;;;;5039135;28;20068;-66
2023/08/26 06:45:57;;;;;;;8.30;6.55;;;19.60;99.90;;;;;;5044971;28;20447;-66
2023/08/26 06:48:26;;;;;;;10.05;7.13;;;19.80;99.90;;;;;;5029029;28;20037;-66
2023/08/26 06:50:53;;;;;;;7.30;6.53;;;19.90;99.90;;;;;;5033589;28;20483;-66
2023/08/26 06:53:25;;;;;;;6.97;6.03;;;20.00;99.90;;;;;;5035158;28;20126;-66
2023/08/26 06:55:58;;;;;;;8.93;6.60;;;20.10;99.90;;;;;;5039597;28;20033;-66
2023/08/26 06:58:30;;;;;;;7.97;6.32;;;20.20;99.90;;;;;;5041037;28;20041;-65
2023/08/26 07:01:03;;;;;;;7.55;6.20;;;20.30;99.90;;;;;;5024737;28;20088;-66
2023/08/26 07:03:30;;;;;;;8.82;5.75;;;20.40;99.90;;;;;;5037958;28;20041;-65
2023/08/26 07:06:01;;;;;;;7.03;5.85;;;20.50;99.90;;;;;;5038960;28;20037;-66
2023/08/26 07:08:38;;;;;;;8.15;6.30;;;20.60;99.90;;;;;;5021390;28;20055;-65
2023/08/26 07:11:10;;;;;;;9.60;6.13;;;20.70;99.90;;;;;;5035395;28;20061;-66
2023/08/26 07:13:42;;;;;;;7.35;5.97;;;20.80;99.90;;;;;;5033441;28;20037;-64
2023/08/26 07:16:13;;;;;;;7.55;5.57;;;20.80;99.90;;;;;;5032055;28;20064;-66
2023/08/26 07:18:45;;;;;;;7.20;6.03;;;20.90;99.90;;;;;;5043283;28;20417;-65
2023/08/26 07:21:13;;;;;;;6.57;5.57;;;20.90;99.90;;;;;;5040109;28;20576;-65
2023/08/26 07:23:45;;;;;;;11.63;6.60;;;21.00;99.90;;;;;;5039788;28;20045;-66
2023/08/26 07:26:12;;;;;;;7.53;6.70;;;21.00;99.90;;;;;;5038043;28;20137;-66
2023/08/26 07:28:45;;;;;;;9.57;7.05;;;21.10;99.90;;;;;;5040298;28;20052;-66
2023/08/26 07:31:17;;;;;;;10.35;6.43;;;21.00;99.90;;;;;;5036620;28;20052;-65
2023/08/26 07:33:49;;;;;;;7.15;6.35;;;21.00;99.90;;;;;;5045597;28;20045;-65
2023/08/26 07:36:21;;;;;;;7.63;6.72;;;21.00;99.90;;;;;;5035330;28;20044;-65
2023/08/26 07:38:53;;;;;;;9.55;7.50;;;21.00;99.90;;;;;;5039685;28;20119;-66
2023/08/26 07:41:24;;;;;;;9.45;7.07;;;21.00;99.90;;;;;;5038741;28;20045;-65
2023/08/26 07:43:56;;;;;;;11.13;7.10;;;21.10;99.90;;;;;;5039703;28;20048;-65
2023/08/26 07:46:28;;;;;;;9.25;6.88;;;21.10;99.90;;;;;;5040218;28;20032;-66
2023/08/26 07:49:00;;;;;;;8.02;5.40;;;21.30;99.90;;;;;;5038060;28;20049;-65
2023/08/26 07:51:32;;;;;;;7.07;5.55;;;21.30;99.90;;;;;;5039903;28;20461;-66
2023/08/26 07:54:04;;;;;;;7.50;6.50;;;21.20;99.90;;;;;;5042939;28;20040;-65
2023/08/26 07:56:35;;;;;;;7.55;6.00;;;21.30;99.90;;;;;;5040891;28;20048;-65
2023/08/26 07:59:07;;;;;;;9.30;5.10;;;21.40;99.90;;;;;;5017547;28;20049;-65
2023/08/26 08:01:39;;;;;;;6.60;4.95;;;21.40;99.90;;;;;;5033393;28;20537;-65
2023/08/26 08:04:11;;;;;;;8.00;5.38;;;21.50;99.90;;;;;;5038134;28;20038;-66
2023/08/26 08:06:37;;;;;;;7.90;5.82;;;21.60;99.90;;;;;;5035358;28;20137;-66
2023/08/26 08:09:09;;;;;;;10.18;7.05;;;21.80;99.90;;;;;;5026238;28;20051;-65
2023/08/26 08:11:36;;;;;;;8.13;7.07;;;22.00;99.90;;;;;;5040070;28;20037;-65
2023/08/26 08:14:03;;;;;;;10.02;6.35;;;22.10;99.90;;;;;;5037864;28;20553;-65
2023/08/26 08:16:35;;;;;;;6.60;5.60;;;22.30;99.90;;;;;;5038229;28;20529;-66
2023/08/26 08:19:07;;;;;;;7.10;4.90;;;22.40;99.90;;;;;;5034479;28;20069;-65
2023/08/26 08:21:39;;;;;;;7.70;5.32;;;22.30;99.90;;;;;;5035826;28;20052;-66
2023/08/26 08:24:10;;;;;;;8.27;5.15;;;22.10;99.90;;;;;;5034834;28;20064;-65
2023/08/26 08:26:43;;;;;;;7.20;5.10;;;22.00;99.90;;;;;;5034454;28;20448;-65
2023/08/26 08:29:15;;;;;;;8.40;5.07;;;21.90;99.90;;;;;;5039011;28;20045;-65
2023/08/26 08:31:47;;;;;;;7.57;5.30;;;21.90;99.90;;;;;;5035039;28;20046;-65
2023/08/26 08:34:14;;;;;;;8.43;4.88;;;21.90;99.90;;;;;;5039104;28;20029;-65
2023/08/26 08:36:46;;;;;;;9.82;6.53;;;21.80;99.90;;;;;;5037772;28;20041;-66
2023/08/26 08:39:18;;;;;;;8.73;6.32;;;21.90;99.90;;;;;;5040614;28;20056;-65
2023/08/26 08:41:50;;;;;;;6.45;4.65;;;21.90;99.90;;;;;;5051488;28;20445;-65
2023/08/26 08:44:25;;;;;;;11.45;4.90;;;21.90;99.90;;;;;;5034972;28;20037;-65
2023/08/26 08:46:58;;;;;;;8.60;5.40;;;22.00;99.90;;;;;;5013902;28;20059;-65
2023/08/26 08:49:31;;;;;;;9.35;5.45;;;22.10;99.90;;;;;;5036240;28;20410;-65
2023/08/26 08:52:04;;;;;;;10.18;5.68;;;22.30;99.90;;;;;;5035016;28;20052;-65
2023/08/26 08:54:36;;;;;;;9.25;5.32;;;22.40;99.90;;;;;;5036387;28;20042;-65
2023/08/26 08:57:12;;;;;;;9.15;5.20;;;22.40;99.90;;;;;;5033255;28;20087;-65
2023/08/26 08:59:45;;;;;;;9.18;5.22;;;22.50;99.90;;;;;;5037896;28;20414;-65
2023/08/26 09:02:17;;;;;;;8.45;5.28;;;22.50;99.90;;;;;;5038947;28;20057;-65
2023/08/26 09:04:49;;;;;;;7.78;5.43;;;22.50;99.90;;;;;;5037365;28;20041;-65
2023/08/26 09:07:22;;;;;;;7.88;5.28;;;22.50;99.90;;;;;;5034704;28;20037;-65
2023/08/26 09:09:56;;;;;;;6.10;5.13;;;22.50;99.90;;;;;;5038176;28;20043;-65
2023/08/26 09:12:23;;;;;;;6.68;5.53;;;22.50;99.90;;;;;;5034487;28;20477;-65
2023/08/26 09:14:55;;;;;;;8.63;4.40;;;22.40;99.90;;;;;;5034150;28;20502;-65
2023/08/26 09:17:28;;;;;;;7.03;5.20;;;22.50;99.90;;;;;;5037047;28;20039;-65
2023/08/26 09:20:02;;;;;;;5.25;4.10;;;22.50;99.90;;;;;;5036254;28;20124;-65
2023/08/26 09:22:34;;;;;;;11.73;6.78;;;22.50;99.90;;;;;;5034682;28;20116;-65
2023/08/26 09:25:06;;;;;;;9.00;5.50;;;22.70;99.90;;;;;;5043642;28;20072;-65
2023/08/26 09:27:42;;;;;;;9.55;5.72;;;22.80;99.90;;;;;;5042214;28;20040;-65
2023/08/26 09:30:19;;;;;;;10.23;5.63;;;22.80;99.90;;;;;;5043562;28;20038;-65
2023/08/26 09:32:53;;;;;;;11.02;6.00;;;22.90;99.90;;;;;;5039153;28;20037;-65
2023/08/26 09:35:25;;;;;;;8.02;5.15;;;22.90;99.90;;;;;;5038269;28;20036;-65
2023/08/26 09:37:58;;;;;;;8.05;5.00;;;22.90;99.90;;;;;;5042823;28;20420;-65
2023/08/26 09:40:30;;;;;;;6.30;5.63;;;23.00;99.90;;;;;;5041524;28;20045;-65
2023/08/26 09:42:56;;;;;;;8.65;5.35;;;23.20;99.90;;;;;;5037993;28;20522;-65
2023/08/26 09:45:35;;;;;;;7.68;4.40;;;23.30;99.90;;;;;;5045650;28;20413;-65
2023/08/26 09:48:07;;;;;;;8.60;5.25;;;23.50;99.90;;;;;;5043653;28;20028;-65
2023/08/26 09:50:39;;;;;;;9.98;5.15;;;23.60;99.90;;;;;;5041047;28;20099;-65
2023/08/26 09:53:10;;;;;;;8.38;5.25;;;23.60;99.90;;;;;;5039240;28;20037;-65
2023/08/26 09:55:43;;;;;;;9.70;6.05;;;23.70;99.90;;;;;;5042496;28;20057;-65
2023/08/26 09:58:10;;;;;;;8.80;5.10;;;23.60;99.90;;;;;;5037949;28;20477;-65
2023/08/26 10:00:44;;;;;;;8.48;6.00;;;23.60;99.90;;;;;;5041035;28;20049;-65
2023/08/26 10:03:21;;;;;;;8.85;5.45;;;23.50;99.90;;;;;;5039112;28;20532;-65
2023/08/26 10:05:53;;;;;;;9.30;5.00;;;23.50;99.90;;;;;;5037581;28;20061;-65
2023/08/26 10:08:31;;;;;;;7.18;5.10;;;23.50;99.90;;;;;;5034737;28;20406;-65
2023/08/26 10:11:06;;;;;;;7.43;4.90;;;23.50;99.90;;;;;;5033961;28;20043;-65
2023/08/26 10:13:39;;;;;;;8.20;5.65;;;23.50;99.90;;;;;;5043764;28;20049;-65
2023/08/26 10:16:07;;;;;;;6.82;5.05;;;23.60;99.90;;;;;;5045777;28;20148;-65
2023/08/26 10:18:43;;;;;;;;;;;23.90;99.90;;;;;;5040381;28;20044;-65
2023/08/26 10:21:15;;;;;;;9.68;4.95;;;24.10;99.90;;;;;;5040886;28;19928;-65
2023/08/26 10:23:48;;;;;;;8.43;5.47;;;24.30;99.90;;;;;;5041618;28;20045;-65
2023/08/26 10:26:19;;;;;;;12.55;7.20;;;24.50;99.90;;;;;;5038845;28;20124;-65
2023/08/26 10:28:48;;;;;;;6.50;4.93;;;24.70;99.90;;;;;;5036714;28;20045;-65
2023/08/26 10:31:21;;;;;;;8.35;4.93;;;24.90;99.90;;;;;;5034526;28;20044;-65
2023/08/26 10:34:12;;;;;;;9.77;4.57;;;25.10;99.90;;;;;;5033419;28;20479;-64
2023/08/26 10:36:48;;;;;;;9.35;5.75;;;25.30;99.90;;;;;;5041289;28;20045;-65
2023/08/26 10:39:24;;;;;;;9.52;5.22;;;25.50;99.90;;;;;;5040559;28;20060;-69
2023/08/26 10:42:12;;;;;;;12.50;5.82;;;25.60;99.90;;;;;;5020305;28;20034;-63
2023/08/26 10:44:53;;;;;;;9.27;5.53;;;25.40;99.90;;;;;;5022934;28;20041;-63
2023/08/26 10:47:46;;;;;;;7.32;5.18;;;25.20;99.90;;;;;;5023152;28;20045;-63
2023/08/26 10:50:25;;;;;;;9.68;6.13;;;25.20;99.90;;;;;;5019920;28;20048;-63
2023/08/26 10:52:59;;;;;;;8.80;5.68;;;25.20;99.90;;;;;;5018642;28;20048;-63
2023/08/26 10:55:33;;;;;;;7.10;5.10;;;25.20;99.90;;;;;;5015771;28;20033;-63
2023/08/26 10:58:13;;;;;;;6.75;5.80;;;25.30;99.90;;;;;;5019455;28;20042;-63
2023/08/26 11:00:46;;;;;;;6.72;4.75;;;25.20;99.90;;;;;;5025676;28;20065;-63
2023/08/26 11:03:22;;;;;;;9.15;5.53;;;25.20;99.90;;;;;;5023327;28;20047;-63
2023/08/26 11:06:02;;;;;;;10.15;6.30;;;25.20;99.90;;;;;;5040728;28;20041;-63
2023/08/26 11:08:39;;;;;;;9.43;5.85;;;25.20;99.90;;;;;;5021246;28;20049;-63
2023/08/26 11:11:12;;;;;;;11.63;6.10;;;25.20;99.90;;;;;;5023875;28;20153;-63
2023/08/26 11:13:40;;;;;;;6.28;5.00;;;25.10;99.90;;;;;;5021560;28;20631;-63
2023/08/26 11:16:08;;;;;;;12.68;5.65;;;25.10;99.90;;;;;;5018481;28;20044;-63
2023/08/26 11:18:42;;;;;;;6.93;5.30;;;25.10;99.90;;;;;;5023352;28;20042;-63
2023/08/26 11:21:09;;;;;;;10.13;6.15;;;25.20;99.90;;;;;;5012781;28;20124;-63
2023/08/26 11:23:38;;;;;;;9.98;5.70;;;25.20;99.90;;;;;;5023078;28;20129;-63
2023/08/26 11:26:18;;;;;;;6.05;5.50;;;25.30;99.90;;;;;;5023127;28;20040;-63
2023/08/26 11:28:47;;;;;;;7.97;5.15;;;25.30;99.90;;;;;;5023469;28;20089;-63
2023/08/26 11:31:18;;;;;;;8.13;5.75;;;25.40;99.90;;;;;;5023194;28;20510;-63
2023/08/26 11:33:51;;;;;;;7.93;5.13;;;25.50;99.90;;;;;;5023638;28;20052;-63
2023/08/26 11:36:24;;;;;;;7.05;5.47;;;25.50;99.90;;;;;;5020012;28;20046;-63
2023/08/26 11:38:51;;;;;;;8.23;5.35;;;25.50;99.90;;;;;;5019404;28;20128;-63
2023/08/26 11:41:23;;;;;;;6.32;5.57;;;25.40;99.90;;;;;;5013876;28;20041;-63
2023/08/26 11:43:50;;;;;;;8.35;5.35;;;25.40;99.90;;;;;;5012540;28;20129;-63
2023/08/26 11:46:22;;;;;;;6.47;4.75;;;25.40;99.90;;;;;;5023712;28;20079;-63
2023/08/26 11:48:55;;;;;;;7.97;4.70;;;25.50;99.90;;;;;;5023560;28;20121;-63
2023/08/26 11:51:27;;;;;;;8.77;5.25;;;25.60;99.90;;;;;;5034796;28;20430;-63
2023/08/26 11:53:59;;;;;;;7.18;4.80;;;25.70;99.90;;;;;;5024832;28;20437;-63
2023/08/26 11:56:31;;;;;;;6.10;5.03;;;25.80;99.90;;;;;;5038683;28;20538;-63
2023/08/26 11:59:17;;;;;;;6.50;4.60;;;25.80;99.90;;;;;;5023045;28;20061;-63
2023/08/26 12:01:49;;;;;;;10.10;5.20;;;25.80;99.90;;;;;;5019259;28;20049;-63
2023/08/26 12:04:21;;;;;;;7.85;4.85;;;25.60;99.90;;;;;;5014339;28;20520;-63
2023/08/26 12:06:52;;;;;;;9.68;5.72;;;25.50;99.90;;;;;;5019421;28;20528;-63
2023/08/26 12:09:24;;;;;;;6.82;5.40;;;25.40;99.90;;;;;;5023165;28;20042;-63
2023/08/26 12:11:51;;;;;;;9.60;5.55;;;25.30;99.90;;;;;;5025031;28;20064;-63
2023/08/26 12:14:23;;;;;;;9.15;5.70;;;25.10;99.90;;;;;;5022043;28;20053;-63
2023/08/26 12:16:49;;;;;;;11.52;5.85;;;25.00;99.90;;;;;;5022529;28;20044;-63
2023/08/26 12:19:21;;;;;;;8.75;6.00;;;24.90;99.90;;;;;;5038995;28;20570;-63
2023/08/26 12:21:53;;;;;;;9.88;6.13;;;24.90;99.90;;;;;;5023126;28;20046;-63
2023/08/26 12:24:25;;;;;;;7.32;5.57;;;24.80;99.90;;;;;;5024289;28;20401;-63
2023/08/26 12:27:07;;;;;;;10.40;5.30;;;24.70;99.90;;;;;;5016014;28;20569;-63
2023/08/26 12:29:39;;;;;;;10.20;5.47;;;24.60;99.90;;;;;;5014081;28;20042;-63
2023/08/26 12:32:11;;;;;;;7.45;5.10;;;24.50;99.90;;;;;;5021347;28;20288;-63
2023/08/26 12:34:38;;;;;;;10.35;5.25;;;24.40;99.90;;;;;;5024896;28;20517;-63
2023/08/26 12:37:10;;;;;;;8.52;5.72;;;24.40;99.90;;;;;;5021963;28;20050;-63
2023/08/26 12:39:42;;;;;;;6.50;5.60;;;24.30;99.90;;;;;;5005200;28;20060;-63
2023/08/26 12:42:14;;;;;;;8.10;5.53;;;24.20;99.90;;;;;;5020478;28;20076;-63
2023/08/26 12:44:46;;;;;;;6.73;5.60;;;24.10;99.90;;;;;;5024425;28;20041;-63
2023/08/26 12:47:18;;;;;;;9.35;6.43;;;24.00;99.90;;;;;;5018732;28;20033;-63
2023/08/26 12:49:50;;;;;;;6.57;5.57;;;24.00;99.90;;;;;;5014460;28;20112;-63
2023/08/26 12:52:21;;;;;;;7.97;5.47;;;23.80;99.90;;;;;;5015784;28;20049;-63
2023/08/26 12:54:54;;;;;;;8.20;5.45;;;23.70;99.90;;;;;;5015878;28;20533;-63
2023/08/26 12:57:21;;;;;;;9.63;4.90;;;23.70;99.90;;;;;;5023775;28;20508;-63
2023/08/26 12:59:52;;;;;;;8.75;5.00;;;23.60;99.90;;;;;;5038509;28;20061;-63
2023/08/26 13:02:19;;;;;;;8.23;5.03;;;23.50;99.90;;;;;;5026778;28;20128;-63
2023/08/26 13:04:46;;;;;;;6.63;5.30;;;23.50;99.90;;;;;;5027867;28;20047;-63
2023/08/26 13:07:18;;;;;;;7.82;5.60;;;23.40;99.90;;;;;;5026173;28;20037;-63
2023/08/26 13:09:49;;;;;;;7.45;5.53;;;23.40;99.90;;;;;;5018553;28;20429;-63